Time;durP1;ratioP1;P1;durP2;ratioP2;P2;SDS_P1;SDS_P2;PMS_P1;PMS_P2;Temp;Humidity;BMP_temperature;BMP_pressure;BME280_temperature;BME280_humidity;BME280_pressure;Samples;Min_cycle;Max_cycle;Signal;HPM_P1;HPM_P2
2023/05/04 00:00:31;;;;;;;8.45;3.60;;;;;;;16.98;48.99;101125.63;5040347;28;20062;-65
2023/05/04 00:03:19;;;;;;;7.55;3.30;;;;;;;17.27;48.59;101122.66;5051255;28;20575;-65
2023/05/04 00:06:06;;;;;;;8.35;3.40;;;;;;;16.96;50.36;101116.00;5074039;28;20384;-65
2023/05/04 00:08:54;;;;;;;6.18;3.53;;;;;;;16.89;49.29;101114.59;5058966;28;20051;-66
2023/05/04 00:11:41;;;;;;;8.82;3.42;;;;;;;16.84;49.73;101114.03;5074686;28;20060;-66
2023/05/04 00:14:29;;;;;;;7.18;3.28;;;;;;;16.79;49.79;101097.53;5065739;28;20051;-65
2023/05/04 00:17:17;;;;;;;9.30;3.38;;;;;;;16.93;49.55;101097.25;5074472;28;20048;-65
2023/05/04 00:20:05;;;;;;;8.43;3.78;;;;;;;16.99;49.38;101093.06;5073557;28;20059;-65
2023/05/04 00:22:53;;;;;;;9.05;3.63;;;;;;;16.83;49.96;101090.16;5067118;28;20060;-67
2023/05/04 00:25:40;;;;;;;7.75;3.47;;;;;;;16.63;50.41;101096.63;5060909;28;20057;-65
2023/05/04 00:28:28;;;;;;;8.02;3.70;;;;;;;16.82;50.49;101091.31;5059773;28;20531;-66
2023/05/04 00:31:17;;;;;;;6.78;3.80;;;;;;;16.68;50.60;101080.50;5060803;28;20499;-67
2023/05/04 00:34:06;;;;;;;7.63;3.85;;;;;;;16.40;51.57;101087.03;5072278;28;20483;-65
2023/05/04 00:36:55;;;;;;;7.72;3.40;;;;;;;16.11;52.64;101084.38;5051476;28;20052;-66
2023/05/04 00:39:42;;;;;;;9.15;4.18;;;;;;;16.12;53.13;101080.44;5056140;28;20128;-65
2023/05/04 00:42:30;;;;;;;8.52;3.90;;;;;;;16.16;52.85;101078.59;5039555;28;20053;-66
2023/05/04 00:45:18;;;;;;;10.68;4.28;;;;;;;16.20;52.88;101076.75;5042516;28;20534;-66
2023/05/04 00:48:05;;;;;;;8.60;3.88;;;;;;;16.40;52.22;101065.59;5040978;28;20588;-65
2023/05/04 00:50:53;;;;;;;7.38;4.28;;;;;;;16.43;52.64;101070.47;5073737;28;20063;-66
2023/05/04 00:53:41;;;;;;;9.77;4.20;;;;;;;16.55;52.33;101064.94;5073942;28;20056;-65
2023/05/04 00:56:29;;;;;;;6.60;3.97;;;;;;;16.32;52.64;101065.69;5084818;28;20059;-66
2023/05/04 00:59:17;;;;;;;6.38;3.78;;;;;;;16.40;52.87;101054.47;5094194;28;20782;-65
2023/05/04 01:02:05;;;;;;;9.82;4.10;;;;;;;16.40;52.70;101060.03;5054292;28;20044;-67
2023/05/04 01:04:53;;;;;;;6.95;4.10;;;;;;;16.33;53.12;101062.56;5067378;28;20056;-65
2023/05/04 01:08:25;;;;;;;5.63;4.03;;;;;;;16.22;53.34;101061.38;5054625;28;20669;-65
2023/05/04 01:11:29;;;;;;;8.35;4.80;;;;;;;16.22;53.47;101055.81;5061974;28;20052;-65
2023/05/04 01:14:19;;;;;;;8.65;4.50;;;;;;;16.41;53.07;101050.53;5038556;28;20832;-65
2023/05/04 01:17:07;;;;;;;7.00;4.13;;;;;;;16.48;52.90;101049.97;5053952;28;20053;-65
2023/05/04 01:19:55;;;;;;;8.50;4.50;;;;;;;16.62;53.11;101048.50;5052927;28;20048;-65
2023/05/04 01:22:42;;;;;;;8.40;4.55;;;;;;;16.74;52.42;101040.19;5081642;28;20064;-65
2023/05/04 01:25:41;;;;;;;8.35;4.25;;;;;;;16.48;53.34;101042.47;5058875;28;20411;-67
2023/05/04 01:28:40;;;;;;;13.40;4.40;;;;;;;16.41;53.63;101044.97;5079309;28;20047;-66
2023/05/04 01:31:27;;;;;;;6.38;4.30;;;;;;;16.25;53.91;101046.78;5068268;28;20055;-65
2023/05/04 01:34:16;;;;;;;8.40;4.40;;;;;;;16.25;54.83;101040.41;5080233;28;20521;-65
2023/05/04 01:37:03;;;;;;;6.40;4.15;;;;;;;16.04;55.00;101037.66;5075999;28;20060;-65
2023/05/04 01:39:51;;;;;;;7.88;4.22;;;;;;;16.18;54.69;101029.84;5078649;28;20040;-65
2023/05/04 01:42:39;;;;;;;7.60;4.65;;;;;;;16.03;55.30;101024.13;5078325;28;20051;-65
2023/05/04 01:45:26;;;;;;;7.95;4.85;;;;;;;15.84;56.31;101029.38;5092690;28;20499;-65
2023/05/04 01:48:14;;;;;;;7.97;4.45;;;;;;;15.83;56.26;101020.22;5092551;28;20051;-65
2023/05/04 01:51:01;;;;;;;11.57;5.05;;;;;;;15.75;56.36;101021.94;5093416;28;20063;-65
2023/05/04 01:53:50;;;;;;;8.20;4.68;;;;;;;15.75;56.62;101027.50;5064374;28;20048;-65
2023/05/04 01:56:37;;;;;;;9.77;4.95;;;;;;;15.85;56.68;101025.47;5105496;28;20055;-65
2023/05/04 01:59:25;;;;;;;6.30;4.28;;;;;;;15.91;57.55;101024.09;5098823;28;20062;-65
2023/05/04 02:02:13;;;;;;;9.93;4.90;;;;;;;15.72;57.06;101032.91;5081171;28;20102;-65
2023/05/04 02:05:00;;;;;;;8.20;5.13;;;;;;;15.91;56.85;101036.00;5065459;28;20071;-65
2023/05/04 02:07:48;;;;;;;10.82;5.22;;;;;;;15.65;57.31;101032.66;5093029;28;20060;-66
2023/05/04 02:10:35;;;;;;;9.30;5.22;;;;;;;15.62;57.71;101034.13;5093056;28;20064;-65
2023/05/04 02:13:23;;;;;;;12.23;5.07;;;;;;;15.61;57.63;101034.47;5092026;28;20056;-65
2023/05/04 02:16:10;;;;;;;9.05;5.95;;;;;;;15.60;58.06;101036.44;5093176;28;20052;-65
2023/05/04 02:18:58;;;;;;;9.32;4.82;;;;;;;15.60;57.79;101019.78;5077676;28;20052;-66
2023/05/04 02:21:46;;;;;;;9.85;5.38;;;;;;;15.85;56.96;101031.03;5073737;28;20052;-65
2023/05/04 02:24:34;;;;;;;10.48;5.30;;;;;;;15.84;57.12;101021.88;5077092;28;20055;-65
2023/05/04 02:27:22;;;;;;;11.30;5.88;;;;;;;15.60;57.67;101018.97;5067286;28;20048;-65
2023/05/04 02:30:11;;;;;;;9.55;5.22;;;;;;;15.59;57.78;101018.16;5094404;28;20040;-66
2023/05/04 02:32:59;;;;;;;10.07;5.65;;;;;;;15.47;58.22;101012.53;5091738;28;20067;-66
2023/05/04 02:35:47;;;;;;;10.68;5.95;;;;;;;15.44;58.52;101015.19;5087332;28;20051;-66
2023/05/04 02:38:34;;;;;;;9.30;5.25;;;;;;;15.42;58.65;101017.47;5073153;28;20383;-65
2023/05/04 02:41:23;;;;;;;11.00;5.30;;;;;;;15.12;59.53;101016.69;5078597;28;20536;-65
2023/05/04 02:44:11;;;;;;;9.98;5.05;;;;;;;15.21;60.80;101017.44;5080473;28;20052;-65
2023/05/04 02:46:59;;;;;;;10.05;5.80;;;;;;;15.24;59.54;101027.03;5084526;28;20045;-63
2023/05/04 02:49:49;;;;;;;;;;;;;;;15.56;58.69;101018.84;5093845;28;20048;-65
2023/05/04 02:52:37;;;;;;;9.20;5.35;;;;;;;15.50;58.59;101020.19;5076908;28;20040;-64
2023/05/04 02:55:25;;;;;;;9.15;5.68;;;;;;;15.60;58.39;101010.66;5079314;28;20059;-64
2023/05/04 02:58:13;;;;;;;11.93;5.68;;;;;;;15.55;58.44;101014.44;5116301;28;20529;-65
2023/05/04 03:01:01;;;;;;;8.43;5.68;;;;;;;15.40;59.12;101003.13;5102225;28;20444;-65
2023/05/04 03:03:48;;;;;;;10.35;5.57;;;;;;;15.42;59.51;101003.59;5076344;28;20066;-65
2023/05/04 03:06:36;;;;;;;8.38;5.70;;;;;;;15.62;58.63;101000.03;5084051;28;20407;-65
2023/05/04 03:09:25;;;;;;;8.70;5.72;;;;;;;15.54;59.05;100995.34;5081619;28;20649;-65
2023/05/04 03:12:12;;;;;;;13.82;5.70;;;;;;;15.37;59.07;100985.16;5095732;28;20525;-65
2023/05/04 03:15:00;;;;;;;15.32;5.80;;;;;;;15.23;59.36;100992.94;5095766;28;20048;-65
2023/05/04 03:17:47;;;;;;;10.82;5.95;;;;;;;15.24;60.63;100983.47;5081865;28;20058;-65
2023/05/04 03:20:35;;;;;;;13.13;6.03;;;;;;;15.24;59.71;100988.19;5081641;28;20040;-65
2023/05/04 03:23:23;;;;;;;11.70;6.13;;;;;;;15.34;60.68;100985.03;5067433;28;20555;-65
2023/05/04 03:26:10;;;;;;;11.02;5.85;;;;;;;15.42;60.73;100995.28;5096236;28;20067;-65
2023/05/04 03:28:58;;;;;;;11.95;5.55;;;;;;;15.44;59.43;100991.03;5096595;28;20044;-65
2023/05/04 03:31:46;;;;;;;13.55;6.07;;;;;;;15.21;59.50;100986.09;5081740;28;20055;-64
2023/05/04 03:34:35;;;;;;;9.50;5.60;;;;;;;15.07;60.10;100982.78;5080704;28;20060;-65
2023/05/04 03:37:24;;;;;;;9.85;5.97;;;;;;;15.07;60.36;100982.78;5095070;28;20067;-65
2023/05/04 03:40:12;;;;;;;9.00;5.60;;;;;;;15.15;60.09;100976.38;5074938;28;20045;-65
2023/05/04 03:43:00;;;;;;;10.68;5.88;;;;;;;14.86;61.00;100979.16;5065763;28;20052;-65
2023/05/04 03:45:48;;;;;;;11.52;5.53;;;;;;;15.08;60.70;100976.88;5062083;28;20479;-66
2023/05/04 03:48:36;;;;;;;10.80;5.63;;;;;;;15.18;60.08;100984.84;5060877;28;20060;-66
2023/05/04 03:51:26;;;;;;;8.63;6.03;;;;;;;15.28;59.87;100975.28;5062286;28;20052;-66
2023/05/04 03:54:14;;;;;;;9.27;5.75;;;;;;;14.98;60.68;100979.22;5080699;28;20052;-66
2023/05/04 03:57:03;;;;;;;10.93;5.90;;;;;;;14.83;61.04;100977.88;5107024;28;20063;-65
2023/05/04 03:59:52;;;;;;;9.45;5.88;;;;;;;15.10;60.53;100962.69;5072629;28;20419;-64
2023/05/04 04:02:42;;;;;;;8.25;5.97;;;;;;;15.24;60.00;100963.22;5070851;28;20048;-64
2023/05/04 04:05:36;;;;;;;9.35;6.00;;;;;;;15.21;61.12;100966.66;5073944;28;20059;-64
2023/05/04 04:08:24;;;;;;;9.77;5.90;;;;;;;14.92;60.91;100963.97;5057396;28;20048;-65
2023/05/04 04:11:11;;;;;;;12.63;6.20;;;;;;;15.34;59.73;100955.28;5075270;28;20068;-66
2023/05/04 04:13:59;;;;;;;11.38;5.93;;;;;;;14.94;61.68;100967.22;5078531;28;20052;-66
2023/05/04 04:16:46;;;;;;;11.75;6.15;;;;;;;15.08;60.83;100968.56;5095811;28;20529;-66
2023/05/04 04:19:34;;;;;;;10.88;6.53;;;;;;;14.67;61.81;100971.28;5079062;28;20040;-66
2023/05/04 04:22:22;;;;;;;11.65;6.15;;;;;;;14.82;62.83;100970.69;5073922;28;20056;-65
2023/05/04 04:25:09;;;;;;;11.88;6.22;;;;;;;14.82;61.49;100976.22;5067263;28;20057;-66
2023/05/04 04:27:57;;;;;;;12.05;6.50;;;;;;;14.66;61.78;100969.66;5068724;28;20052;-66
2023/05/04 04:30:45;;;;;;;11.27;6.38;;;;;;;14.52;62.53;100958.78;5055728;28;20056;-66
2023/05/04 04:33:33;;;;;;;16.25;6.43;;;;;;;14.75;62.28;100951.00;5066966;28;20075;-65
2023/05/04 04:36:21;;;;;;;11.70;6.95;;;;;;;14.68;62.03;100948.75;5077886;28;20419;-65
2023/05/04 04:39:08;;;;;;;13.70;6.47;;;;;;;14.65;62.25;100940.28;5072349;28;20045;-65
2023/05/04 04:41:56;;;;;;;13.23;6.90;;;;;;;14.95;63.85;100941.09;5064197;28;20049;-65
2023/05/04 04:44:44;;;;;;;11.20;6.75;;;;;;;14.82;63.17;100933.84;5073773;28;20067;-66
2023/05/04 04:47:32;;;;;;;15.07;7.40;;;;;;;14.61;62.48;100937.38;5073602;28;20271;-66
2023/05/04 04:50:19;;;;;;;10.55;6.65;;;;;;;14.70;62.23;100929.00;5072759;28;20056;-64
2023/05/04 04:53:07;;;;;;;19.85;7.10;;;;;;;14.72;62.22;100921.16;5073441;28;20052;-66
2023/05/04 04:55:54;;;;;;;10.10;6.90;;;;;;;14.92;62.06;100923.16;5071875;28;20419;-68
2023/05/04 04:58:42;;;;;;;12.52;7.10;;;;;;;14.82;61.71;100912.44;5081791;28;20052;-66
2023/05/04 05:01:30;;;;;;;11.07;6.53;;;;;;;14.71;62.09;100911.25;5070740;28;20053;-64
2023/05/04 05:04:20;;;;;;;13.23;7.10;;;;;;;14.75;64.04;100917.72;5071283;28;20051;-66
2023/05/04 05:07:09;;;;;;;11.30;6.50;;;;;;;14.81;63.85;100921.94;5071475;28;20052;-67
2023/05/04 05:09:56;;;;;;;11.55;7.15;;;;;;;14.92;62.54;100914.84;5038849;28;20056;-66
2023/05/04 05:12:44;;;;;;;11.93;6.70;;;;;;;14.77;62.29;100909.09;5053236;28;20068;-66
2023/05/04 05:15:32;;;;;;;12.25;7.38;;;;;;;14.81;62.01;100919.16;5053554;28;20069;-65
2023/05/04 05:18:20;;;;;;;11.05;7.28;;;;;;;14.71;62.28;100914.00;5054208;28;20068;-68
2023/05/04 05:21:08;;;;;;;10.15;6.72;;;;;;;14.95;62.08;100913.34;5058318;28;20048;-67
2023/05/04 05:23:55;;;;;;;16.27;7.28;;;;;;;14.72;62.79;100912.03;5073118;28;20060;-67
2023/05/04 05:26:43;;;;;;;12.35;7.50;;;;;;;14.54;63.07;100914.09;5073302;28;20049;-67
2023/05/04 05:29:31;;;;;;;11.13;7.25;;;;;;;14.91;62.32;100924.31;5072525;28;20067;-67
2023/05/04 05:32:18;;;;;;;13.30;7.60;;;;;;;15.00;61.35;100922.28;5073653;28;20055;-66
2023/05/04 05:35:06;;;;;;;14.88;7.05;;;;;;;14.80;61.83;100914.78;5067870;28;20053;-66
2023/05/04 05:37:54;;;;;;;12.88;6.95;;;;;;;14.97;61.86;100917.41;5073256;28;20048;-65
2023/05/04 05:40:42;;;;;;;13.98;7.20;;;;;;;15.09;62.94;100931.34;5062975;28;20524;-67
2023/05/04 05:43:32;;;;;;;12.75;7.15;;;;;;;15.77;65.70;100941.88;5072577;28;20059;-67
2023/05/04 05:46:21;;;;;;;13.55;8.13;;;;;;;15.67;62.19;100944.25;5072606;28;20083;-66
2023/05/04 05:49:09;;;;;;;11.70;7.40;;;;;;;15.48;60.58;100944.75;5071971;28;20059;-66
2023/05/04 05:51:57;;;;;;;9.20;6.80;;;;;;;15.36;62.19;100950.22;5058562;28;20428;-67
2023/05/04 05:54:45;;;;;;;12.68;6.63;;;;;;;15.23;61.28;100950.50;5072680;28;20064;-67
2023/05/04 05:57:33;;;;;;;10.77;6.60;;;;;;;14.95;62.12;100939.13;5073024;28;20064;-66
2023/05/04 06:00:20;;;;;;;11.60;6.97;;;;;;;15.12;62.01;100938.19;5063565;28;20056;-66
2023/05/04 06:03:08;;;;;;;11.77;6.82;;;;;;;15.28;61.16;100937.25;5066208;28;20048;-67
2023/05/04 06:05:56;;;;;;;13.27;6.95;;;;;;;15.33;60.60;100925.09;5051513;28;20048;-68
2023/05/04 06:08:43;;;;;;;9.95;6.68;;;;;;;15.53;60.27;100924.31;5051718;28;20514;-67
2023/05/04 06:11:31;;;;;;;10.55;6.50;;;;;;;15.43;60.13;100903.31;5052018;28;20720;-67
2023/05/04 06:14:19;;;;;;;10.85;6.07;;;;;;;15.60;61.29;100911.47;5057155;28;20060;-66
2023/05/04 06:17:06;;;;;;;12.45;6.65;;;;;;;15.51;60.86;100909.97;5052913;28;20056;-66
2023/05/04 06:19:54;;;;;;;13.02;7.55;;;;;;;15.44;60.62;100899.41;5052997;28;20052;-67
2023/05/04 06:22:41;;;;;;;15.98;6.57;;;;;;;15.53;60.40;100897.34;5081186;28;20511;-67
2023/05/04 06:25:29;;;;;;;11.95;6.47;;;;;;;15.70;61.07;100890.81;5057119;28;20044;-66
2023/05/04 06:28:17;;;;;;;14.90;6.50;;;;;;;15.95;63.00;100895.28;5075321;28;20541;-66
2023/05/04 06:31:04;;;;;;;10.88;6.90;;;;;;;15.38;60.26;100897.97;5092640;28;20110;-66
2023/05/04 06:33:52;;;;;;;15.40;7.10;;;;;;;15.52;60.87;100915.16;5078433;28;20047;-65
2023/05/04 06:36:39;;;;;;;11.95;6.10;;;;;;;15.53;60.14;100914.00;5081354;28;20059;-66
2023/05/04 06:39:27;;;;;;;10.38;6.10;;;;;;;15.64;59.84;100911.59;5097554;28;20053;-66
2023/05/04 06:42:14;;;;;;;13.75;6.50;;;;;;;15.82;59.54;100909.47;5092470;28;20059;-66
2023/05/04 06:45:02;;;;;;;10.13;6.70;;;;;;;15.86;58.42;100910.41;5072850;28;20059;-66
2023/05/04 06:47:51;;;;;;;10.85;6.53;;;;;;;15.97;60.30;100908.81;5080744;28;20047;-66
2023/05/04 06:50:38;;;;;;;9.50;5.95;;;;;;;16.02;58.94;100905.81;5077404;28;20055;-65
2023/05/04 06:53:26;;;;;;;10.82;6.38;;;;;;;16.20;58.59;100896.91;5078220;28;20083;-66
2023/05/04 06:56:13;;;;;;;13.00;6.13;;;;;;;16.10;58.05;100893.75;5075555;28;20056;-69
2023/05/04 06:59:01;;;;;;;9.73;6.50;;;;;;;16.16;59.76;100882.06;5080218;28;20049;-65
2023/05/04 07:01:49;;;;;;;11.82;5.72;;;;;;;16.41;58.24;100880.09;5086113;28;20499;-66
2023/05/04 07:04:37;;;;;;;15.43;6.15;;;;;;;16.40;58.30;100884.06;5077101;28;20048;-67
2023/05/04 07:07:25;;;;;;;14.02;6.57;;;;;;;16.80;58.74;100884.97;5092079;28;20134;-66
2023/05/04 07:10:13;;;;;;;12.75;6.35;;;;;;;16.76;56.43;100879.28;5090438;28;20411;-63
2023/05/04 07:13:01;;;;;;;9.82;5.63;;;;;;;17.15;56.55;100874.09;5079842;28;20059;-65
2023/05/04 07:15:49;;;;;;;14.32;6.60;;;;;;;17.18;56.26;100874.19;5088865;28;20051;-64
2023/05/04 07:18:37;;;;;;;12.85;6.15;;;;;;;17.14;55.73;100880.81;5086770;28;20056;-65
2023/05/04 07:21:25;;;;;;;11.85;6.00;;;;;;;17.11;55.99;100873.16;5081638;28;20499;-65
2023/05/04 07:24:15;;;;;;;;;;;;;;;17.44;55.76;100887.63;5085933;28;20053;-63
2023/05/04 07:27:02;;;;;;;9.68;5.82;;;;;;;17.55;55.93;100894.34;5065929;28;19924;-64
2023/05/04 07:29:50;;;;;;;8.68;5.30;;;;;;;17.85;55.44;100901.16;5073048;28;20051;-64
2023/05/04 07:32:37;;;;;;;17.70;5.97;;;;;;;17.49;54.77;100898.56;5072339;28;20406;-65
2023/05/04 07:35:25;;;;;;;12.02;5.53;;;;;;;17.70;54.59;100890.78;5070360;28;20052;-65
2023/05/04 07:38:13;;;;;;;11.05;5.13;;;;;;;17.73;54.35;100896.47;5086742;28;20056;-64
2023/05/04 07:41:01;;;;;;;10.80;5.55;;;;;;;17.65;54.76;100889.09;5084286;28;20519;-65
2023/05/04 07:43:48;;;;;;;14.23;5.85;;;;;;;17.74;55.12;100880.56;5074015;28;20052;-64
2023/05/04 07:46:37;;;;;;;11.60;5.88;;;;;;;17.73;54.66;100881.75;5076222;28;20067;-64
2023/05/04 07:49:25;;;;;;;11.43;6.22;;;;;;;17.93;55.06;100889.03;5079250;28;21490;-64
2023/05/04 07:52:13;;;;;;;9.45;5.90;;;;;;;18.32;52.96;100890.84;5069988;28;20044;-65
2023/05/04 07:55:01;;;;;;;15.93;5.82;;;;;;;18.27;52.97;100887.50;5083992;28;20064;-63
2023/05/04 07:57:48;;;;;;;8.77;5.35;;;;;;;18.39;53.63;100882.66;5081915;28;20052;-65
2023/05/04 08:00:36;;;;;;;8.10;5.40;;;;;;;18.51;52.86;100876.16;5078108;28;20040;-64
2023/05/04 08:03:23;;;;;;;12.35;5.43;;;;;;;18.72;51.94;100871.91;5081278;28;20056;-64
2023/05/04 08:06:12;;;;;;;10.55;5.80;;;;;;;18.75;51.96;100875.94;5082159;28;20055;-65
2023/05/04 08:08:59;;;;;;;13.15;5.32;;;;;;;18.94;51.77;100885.16;5089472;28;20056;-65
2023/05/04 08:11:47;;;;;;;8.68;5.25;;;;;;;18.93;51.77;100874.34;5080927;28;20071;-65
2023/05/04 08:14:37;;;;;;;8.20;5.07;;;;;;;18.99;51.95;100882.06;5082569;28;20048;-64
2023/05/04 08:17:25;;;;;;;17.80;5.50;;;;;;;19.17;51.48;100890.81;5065504;28;21474;-64
2023/05/04 08:20:12;;;;;;;12.18;5.22;;;;;;;19.15;51.38;100895.16;5079843;28;20048;-65
2023/05/04 08:23:02;;;;;;;8.13;4.78;;;;;;;19.16;51.50;100888.41;5072066;28;20064;-65
2023/05/04 08:25:49;;;;;;;12.20;5.50;;;;;;;19.30;51.05;100891.50;5093047;28;20056;-63
2023/05/04 08:28:38;;;;;;;9.93;5.10;;;;;;;18.99;51.78;100884.88;5090320;28;20059;-63
2023/05/04 08:31:26;;;;;;;8.57;5.30;;;;;;;18.95;52.19;100872.00;5083383;28;20036;-64
2023/05/04 08:34:13;;;;;;;11.00;4.80;;;;;;;19.03;51.63;100873.78;5082307;28;20396;-65
2023/05/04 08:37:01;;;;;;;10.27;5.40;;;;;;;18.88;52.75;100864.28;5072972;28;20056;-65
2023/05/04 08:39:48;;;;;;;10.35;4.93;;;;;;;19.05;52.29;100857.47;5082250;28;20044;-64
2023/05/04 08:42:36;;;;;;;7.28;5.03;;;;;;;19.34;51.97;100853.28;5086938;28;20041;-65
2023/05/04 08:45:24;;;;;;;9.07;5.10;;;;;;;19.17;51.83;100859.28;5064547;28;20051;-64
2023/05/04 08:48:12;;;;;;;9.82;5.38;;;;;;;19.20;51.49;100867.75;5081692;28;20064;-64
2023/05/04 08:51:01;;;;;;;10.27;4.97;;;;;;;19.36;51.40;100865.72;5086228;28;20154;-64
2023/05/04 08:53:49;;;;;;;13.38;5.32;;;;;;;19.28;51.52;100858.34;5082831;28;20051;-65
2023/05/04 08:56:39;;;;;;;11.00;4.88;;;;;;;19.46;51.86;100853.94;5091710;28;20059;-63
2023/05/04 08:59:27;;;;;;;8.15;4.68;;;;;;;19.68;51.35;100836.38;5086135;28;20048;-64
2023/05/04 09:02:21;;;;;;;10.85;5.05;;;;;;;19.55;51.01;100846.13;5064583;28;20067;-63
2023/05/04 09:05:10;;;;;;;9.18;5.05;;;;;;;19.45;51.94;100860.72;5078160;28;20523;-64
2023/05/04 09:07:57;;;;;;;11.68;5.18;;;;;;;19.39;52.13;100864.16;5086418;28;20075;-64
2023/05/04 09:10:45;;;;;;;13.10;5.43;;;;;;;19.68;52.09;100863.53;5090802;28;20050;-64
2023/05/04 09:13:32;;;;;;;14.50;5.15;;;;;;;19.70;51.74;100852.81;5073373;28;20052;-64
2023/05/04 09:16:21;;;;;;;8.90;4.60;;;;;;;19.69;51.71;100852.00;5070614;28;20083;-65
2023/05/04 09:19:17;;;;;;;12.63;5.18;;;;;;;20.05;50.89;100850.63;5087200;28;20055;-64
2023/05/04 09:22:15;;;;;;;9.80;4.78;;;;;;;20.27;50.49;100830.25;5049632;28;20272;-64
2023/05/04 09:25:08;;;;;;;10.43;4.57;;;;;;;20.26;50.17;100833.44;5056552;28;20536;-64
2023/05/04 09:27:56;;;;;;;12.68;4.57;;;;;;;20.17;50.18;100833.69;5052364;28;20053;-64
2023/05/04 09:30:44;;;;;;;9.30;4.70;;;;;;;20.02;50.90;100831.78;5065634;28;20044;-64
2023/05/04 09:33:32;;;;;;;7.38;4.32;;;;;;;20.63;49.54;100823.19;5061711;28;20186;-64
2023/05/04 09:36:20;;;;;;;9.43;4.50;;;;;;;20.53;49.66;100829.44;5060906;28;20052;-64
2023/05/04 09:39:13;;;;;;;9.10;4.20;;;;;;;20.49;49.72;100832.19;5049001;28;20044;-65
2023/05/04 09:42:04;;;;;;;10.43;4.40;;;;;;;20.65;49.16;100834.81;5066262;28;20061;-64
2023/05/04 09:44:58;;;;;;;13.15;4.78;;;;;;;20.75;48.70;100825.75;5065509;28;20060;-65
2023/05/04 09:47:46;;;;;;;8.80;4.50;;;;;;;20.74;48.74;100833.34;5064208;28;20056;-64
2023/05/04 09:50:36;;;;;;;10.80;4.13;;;;;;;21.12;48.99;100821.88;5056410;28;20044;-66
2023/05/04 09:53:29;;;;;;;11.55;4.70;;;;;;;21.31;48.38;100834.09;5067722;28;20041;-64
2023/05/04 09:56:19;;;;;;;10.23;4.53;;;;;;;21.42;47.41;100827.44;5059129;28;20056;-63
2023/05/04 09:59:08;;;;;;;11.93;5.22;;;;;;;21.48;46.83;100834.28;5041321;28;20051;-65
2023/05/04 10:01:57;;;;;;;9.18;4.60;;;;;;;21.42;47.08;100830.22;5064832;28;20049;-65
2023/05/04 10:04:51;;;;;;;12.95;4.75;;;;;;;21.61;46.93;100830.03;5057107;28;20057;-65
2023/05/04 10:07:39;;;;;;;15.48;6.43;;;;;;;21.65;47.42;100822.47;5054164;28;20059;-65
2023/05/04 10:10:28;;;;;;;11.50;4.70;;;;;;;21.95;46.58;100817.56;5066369;28;21698;-66
2023/05/04 10:13:16;;;;;;;23.63;4.40;;;;;;;22.06;46.01;100832.50;5056994;28;20051;-64
2023/05/04 10:16:23;;;;;;;8.57;4.50;;;;;;;22.07;45.23;100814.47;5066543;28;20064;-66
2023/05/04 10:19:28;;;;;;;9.98;4.38;;;;;;;22.04;45.37;100820.84;5068353;28;20059;-65
2023/05/04 10:22:27;;;;;;;11.52;4.90;;;;;;;22.04;45.40;100818.03;5057848;28;20064;-66
2023/05/04 10:25:45;;;;;;;12.13;6.50;;;;;;;22.18;44.81;100820.97;5053502;28;20064;-64
2023/05/04 10:28:39;;;;;;;8.50;4.18;;;;;;;22.34;44.53;100809.47;5065835;28;20063;-64
2023/05/04 10:31:39;;;;;;;6.80;4.13;;;;;;;22.18;44.84;100804.13;5062943;28;20052;-65
2023/05/04 10:34:31;;;;;;;7.80;4.10;;;;;;;22.12;44.95;100791.66;5067332;28;20055;-66
2023/05/04 10:37:21;;;;;;;7.88;4.15;;;;;;;21.91;44.46;100783.09;5063328;28;20052;-67
2023/05/04 10:40:08;;;;;;;9.20;4.38;;;;;;;21.99;45.04;100781.13;5053493;28;20059;-65
2023/05/04 10:42:56;;;;;;;13.30;7.80;;;;;;;22.14;45.28;100785.69;5070427;28;20047;-66
2023/05/04 10:45:44;;;;;;;10.10;4.03;;;;;;;22.31;44.28;100787.78;5061233;28;20057;-65
2023/05/04 10:48:34;;;;;;;8.98;4.32;;;;;;;22.44;43.59;100783.44;5049140;28;20053;-66
2023/05/04 10:51:23;;;;;;;7.32;3.97;;;;;;;22.20;43.00;100790.53;5055923;28;20440;-65
2023/05/04 10:54:19;;;;;;;11.43;4.15;;;;;;;22.54;42.77;100794.00;5057764;28;20048;-65
2023/05/04 10:57:08;;;;;;;11.38;4.35;;;;;;;22.68;42.79;100810.09;5048841;28;20059;-65
2023/05/04 10:59:57;;;;;;;7.20;3.40;;;;;;;22.75;42.66;100807.34;5062327;28;20416;-66
2023/05/04 11:02:47;;;;;;;8.23;3.87;;;;;;;23.11;42.15;100806.28;5068119;28;20053;-65
2023/05/04 11:05:46;;;;;;;11.68;4.28;;;;;;;23.12;41.28;100799.47;5062627;28;20048;-65
2023/05/04 11:08:33;;;;;;;10.40;3.85;;;;;;;23.11;40.99;100812.72;5057856;28;20061;-65
2023/05/04 11:11:23;;;;;;;8.20;4.00;;;;;;;23.19;40.92;100813.53;5058145;28;20067;-66
2023/05/04 11:14:20;;;;;;;15.27;4.27;;;;;;;23.10;41.25;100824.38;5048372;28;20048;-66
2023/05/04 11:17:11;;;;;;;8.88;6.05;;;;;;;23.54;41.15;100829.75;5050541;28;20056;-66
2023/05/04 11:20:22;;;;;;;7.85;3.72;;;;;;;23.39;41.12;100820.47;5054388;28;20045;-65
2023/05/04 11:23:14;;;;;;;6.85;3.63;;;;;;;23.40;41.04;100830.50;5091096;28;20040;-67
2023/05/04 11:26:11;;;;;;;10.13;3.10;;;;;;;23.44;40.17;100825.72;5089362;28;21594;-67
2023/05/04 11:28:58;;;;;;;6.97;3.50;;;;;;;23.46;41.10;100836.56;5087702;28;20713;-66
2023/05/04 11:31:53;;;;;;;8.40;4.28;;;;;;;23.72;40.62;100839.84;5079824;28;20059;-66
2023/05/04 11:34:45;;;;;;;7.10;3.60;;;;;;;23.55;41.35;100825.72;5068816;28;20044;-65
2023/05/04 11:37:39;;;;;;;8.07;3.90;;;;;;;23.48;42.13;100823.72;5058666;28;20049;-63
2023/05/04 11:40:27;;;;;;;6.28;3.50;;;;;;;23.30;42.60;100826.47;5082349;28;20462;-66
2023/05/04 11:43:15;;;;;;;6.28;3.60;;;;;;;23.79;42.23;100842.66;5077620;28;20052;-63
2023/05/04 11:46:05;;;;;;;8.02;3.55;;;;;;;23.90;42.43;100837.06;5080667;28;20049;-62
2023/05/04 11:48:53;;;;;;;12.00;4.60;;;;;;;23.57;43.44;100835.41;5083486;28;20045;-62
2023/05/04 11:51:40;;;;;;;9.73;3.78;;;;;;;23.76;43.21;100835.03;5084960;28;20316;-64
2023/05/04 11:54:28;;;;;;;13.70;6.38;;;;;;;23.66;42.99;100823.75;5088612;28;20546;-64
2023/05/04 11:57:21;;;;;;;15.10;7.28;;;;;;;23.55;43.81;100832.16;5084872;28;20522;-64
2023/05/04 12:00:10;;;;;;;13.60;4.22;;;;;;;23.57;43.49;100837.41;5085794;28;20048;-64
2023/05/04 12:02:59;;;;;;;8.70;3.78;;;;;;;23.62;43.46;100822.94;5082514;28;20055;-64
2023/05/04 12:05:49;;;;;;;6.43;3.47;;;;;;;23.57;42.96;100803.66;5085054;28;20044;-62
2023/05/04 12:08:43;;;;;;;5.22;3.15;;;;;;;23.63;42.46;100819.72;5076297;28;20064;-64
2023/05/04 12:11:31;;;;;;;7.30;3.42;;;;;;;23.59;42.04;100821.72;5074159;28;20059;-64
2023/05/04 12:14:19;;;;;;;8.68;3.42;;;;;;;23.79;42.05;100833.41;5088484;28;20052;-62
2023/05/04 12:17:07;;;;;;;8.13;4.00;;;;;;;23.78;41.98;100837.44;5069227;28;20411;-64
2023/05/04 12:19:56;;;;;;;10.25;2.88;;;;;;;24.18;41.26;100835.06;5085004;28;20518;-65
2023/05/04 12:22:43;;;;;;;6.00;3.20;;;;;;;24.08;41.31;100833.06;5065762;28;20048;-64
2023/05/04 12:25:31;;;;;;;7.32;2.92;;;;;;;23.88;41.38;100823.38;5070394;28;20063;-64
2023/05/04 12:28:19;;;;;;;11.07;3.03;;;;;;;23.86;40.48;100830.59;5071582;28;20048;-64
2023/05/04 12:31:07;;;;;;;6.97;2.88;;;;;;;23.86;40.69;100834.22;5072391;28;20056;-64
2023/05/04 12:33:55;;;;;;;8.07;4.28;;;;;;;24.15;40.23;100827.44;5067867;28;20068;-64
2023/05/04 12:36:43;;;;;;;10.73;4.88;;;;;;;24.10;40.46;100816.56;5071602;28;20052;-63
2023/05/04 12:39:32;;;;;;;12.13;2.97;;;;;;;23.80;40.40;100810.50;5053253;28;20053;-63
2023/05/04 12:42:19;;;;;;;12.20;3.67;;;;;;;24.00;39.74;100806.13;5049588;28;20052;-64
2023/05/04 12:45:07;;;;;;;6.32;2.90;;;;;;;24.20;39.23;100812.94;5059110;28;20435;-64
2023/05/04 12:47:55;;;;;;;6.53;2.90;;;;;;;24.17;39.18;100813.75;5069687;28;20052;-64
2023/05/04 12:50:43;;;;;;;6.15;3.17;;;;;;;24.08;39.31;100832.25;5035654;28;20053;-64
2023/05/04 12:53:31;;;;;;;11.15;3.40;;;;;;;24.11;39.51;100839.91;5062821;28;20044;-64
2023/05/04 12:56:18;;;;;;;7.07;3.08;;;;;;;24.00;39.11;100839.91;5065042;28;20063;-64
2023/05/04 12:59:06;;;;;;;9.93;3.13;;;;;;;24.04;38.95;100829.44;5048411;28;20045;-64
2023/05/04 13:01:53;;;;;;;5.82;2.90;;;;;;;23.63;39.85;100827.34;5066326;28;20518;-64